Time;durP1;ratioP1;P1;durP2;ratioP2;P2;SDS_P1;SDS_P2;PMS_P1;PMS_P2;Temp;Humidity;BMP_temperature;BMP_pressure;BME280_temperature;BME280_humidity;BME280_pressure;Samples;Min_cycle;Max_cycle;Signal;HPM_P1;HPM_P2
2023/04/26 00:01:28;;;;;;;12.70;11.83;;;;;;;8.19;100.00;91898.03;5122450;28;20242;-76
2023/04/26 00:03:55;;;;;;;12.00;11.20;;;;;;;8.19;100.00;91905.84;5127271;28;20307;-76
2023/04/26 00:06:20;;;;;;;12.63;11.80;;;;;;;8.16;100.00;91897.81;5118438;28;20258;-76
2023/04/26 00:08:45;;;;;;;13.93;12.93;;;;;;;7.73;100.00;91837.34;5126901;28;20310;-75
2023/04/26 00:11:11;;;;;;;13.20;12.20;;;;;;;7.98;100.00;91870.75;5114558;28;20227;-76
2023/04/26 00:13:37;;;;;;;12.83;11.83;;;;;;;7.82;100.00;91859.03;5116198;28;20195;-76
2023/04/26 00:16:03;;;;;;;12.87;12.03;;;;;;;8.12;100.00;91886.44;5120003;28;20227;-75
2023/04/26 00:18:30;;;;;;;12.83;11.93;;;;;;;7.90;100.00;91879.22;5117531;28;20187;-76
2023/04/26 00:20:56;;;;;;;12.63;11.73;;;;;;;7.95;100.00;91879.13;5123010;27;20211;-75
2023/04/26 00:23:21;;;;;;;13.77;12.87;;;;;;;7.76;100.00;91873.16;5120332;28;20282;-75
2023/04/26 00:25:46;;;;;;;15.27;14.27;;;;;;;7.79;100.00;91867.41;5128200;27;20284;-76
2023/04/26 00:28:12;;;;;;;13.57;12.70;;;;;;;7.60;100.00;91835.41;5120212;28;20192;-76
2023/04/26 00:30:40;;;;;;;14.20;13.20;;;;;;;7.92;100.00;91871.88;5116176;28;20231;-76
2023/04/26 00:33:06;;;;;;;14.00;12.80;;;;;;;7.75;100.00;91856.00;5120230;28;20176;-76
2023/04/26 00:35:32;;;;;;;14.17;13.17;;;;;;;7.63;100.00;91858.22;5115474;28;20228;-76
2023/04/26 00:37:57;;;;;;;13.70;12.50;;;;;;;7.52;100.00;91845.63;5124134;28;20179;-76
2023/04/26 00:40:22;;;;;;;12.57;11.67;;;;;;;7.53;100.00;91858.34;5129436;28;20243;-76
2023/04/26 00:42:48;;;;;;;12.87;11.97;;;;;;;7.51;100.00;91860.47;5118262;28;20194;-75
2023/04/26 00:45:13;;;;;;;14.13;12.87;;;;;;;7.51;100.00;91859.69;5118557;28;20228;-76
2023/04/26 00:47:39;;;;;;;13.70;12.80;;;;;;;7.53;100.00;91853.16;5118482;28;20190;-76
2023/04/26 00:50:06;;;;;;;13.97;12.97;;;;;;;7.48;100.00;91855.03;5112925;28;20279;-76
2023/04/26 00:52:32;;;;;;;12.70;11.80;;;;;;;7.53;100.00;91868.72;5117116;28;20179;-76
2023/04/26 00:54:58;;;;;;;13.47;12.47;;;;;;;7.52;100.00;91867.19;5122468;28;20229;-76
2023/04/26 00:57:24;;;;;;;13.23;11.93;;;;;;;7.39;100.00;91841.13;5121129;28;20182;-76
2023/04/26 00:59:49;;;;;;;12.80;11.90;;;;;;;7.40;100.00;91847.88;5121788;28;20824;-76
2023/04/26 01:02:16;;;;;;;13.73;12.83;;;;;;;7.35;100.00;91848.69;5111238;28;20235;-76
2023/04/26 01:04:41;;;;;;;13.83;12.93;;;;;;;7.33;100.00;91850.03;5112577;28;20191;-76
2023/04/26 01:07:07;;;;;;;14.10;13.10;;;;;;;7.21;100.00;91858.19;5111376;28;20184;-76
2023/04/26 01:09:33;;;;;;;14.70;13.60;;;;;;;7.20;100.00;91853.28;5111544;27;20188;-77
2023/04/26 01:11:59;;;;;;;13.70;12.47;;;;;;;7.13;100.00;91843.22;5113993;28;20189;-76
2023/04/26 01:14:25;;;;;;;12.33;11.53;;;;;;;7.27;100.00;91864.88;5116717;28;20982;-76
2023/04/26 01:16:51;;;;;;;12.57;11.67;;;;;;;7.14;100.00;91859.59;5113751;28;20227;-75
2023/04/26 01:19:17;;;;;;;12.97;12.07;;;;;;;7.23;100.00;91853.50;5111277;28;20176;-76
2023/04/26 01:21:43;;;;;;;12.23;11.43;;;;;;;7.19;100.00;91849.91;5111317;28;20204;-76
2023/04/26 01:24:10;;;;;;;12.77;11.77;;;;;;;7.22;100.00;91854.53;5121141;28;20194;-76
2023/04/26 01:26:42;;;;;;;12.83;11.93;;;;;;;7.21;100.00;91847.81;5116656;28;20216;-76
2023/04/26 01:29:19;;;;;;;12.63;11.83;;;;;;;7.26;100.00;91852.97;5123012;28;20207;-75
2023/04/26 01:31:45;;;;;;;13.13;12.23;;;;;;;7.07;100.00;91843.56;5116104;28;20362;-77
2023/04/26 01:34:11;;;;;;;13.03;12.03;;;;;;;7.15;100.00;91841.13;5112947;28;20194;-76
2023/04/26 01:36:36;;;;;;;12.23;11.47;;;;;;;7.04;100.00;91839.69;5111072;28;20244;-77
2023/04/26 01:39:02;;;;;;;13.17;12.07;;;;;;;7.13;100.00;91861.41;5111677;28;20210;-78
2023/04/26 01:41:28;;;;;;;13.53;12.37;;;;;;;6.99;100.00;91811.19;5114771;28;20225;-78
2023/04/26 01:43:54;;;;;;;12.47;11.53;;;;;;;7.23;100.00;91863.91;5117224;28;20188;-78
2023/04/26 01:46:20;;;;;;;12.80;12.00;;;;;;;7.38;100.00;91855.16;5131269;28;20219;-79
2023/04/26 01:48:46;;;;;;;11.67;10.87;;;;;;;7.40;100.00;91856.44;5117448;27;20191;-78
2023/04/26 01:51:11;;;;;;;13.07;12.27;;;;;;;7.23;100.00;91850.91;5123800;28;20216;-78
2023/04/26 01:53:37;;;;;;;12.93;12.03;;;;;;;7.48;100.00;91855.81;5122281;28;20190;-78
2023/04/26 01:56:03;;;;;;;13.20;12.37;;;;;;;7.36;100.00;91850.22;5122783;28;20239;-78
2023/04/26 01:58:28;;;;;;;12.97;11.97;;;;;;;7.19;100.00;91833.56;5111535;28;20334;-75
2023/04/26 02:00:55;;;;;;;12.97;12.07;;;;;;;7.27;100.00;91857.09;5116488;28;20219;-76
2023/04/26 02:03:20;;;;;;;12.77;11.77;;;;;;;7.32;100.00;91859.63;5117584;28;20208;-77
2023/04/26 02:05:45;;;;;;;13.07;12.10;;;;;;;7.07;100.00;91823.56;5128337;28;20313;-76
2023/04/26 02:08:11;;;;;;;13.17;11.93;;;;;;;7.22;100.00;91851.94;5128825;28;20198;-75
2023/04/26 02:10:36;;;;;;;13.07;12.20;;;;;;;7.13;100.00;91835.44;5122030;28;20877;-75
2023/04/26 02:13:02;;;;;;;14.10;13.10;;;;;;;7.21;100.00;91847.81;5122100;28;20907;-76
2023/04/26 02:15:27;;;;;;;13.57;12.43;;;;;;;6.99;100.00;91816.38;5123780;28;20226;-76
2023/04/26 02:17:54;;;;;;;12.00;11.20;;;;;;;7.13;100.00;91819.88;5111297;28;20214;-75
2023/04/26 02:20:20;;;;;;;12.77;11.90;;;;;;;7.27;100.00;91836.31;5111520;28;20230;-75
2023/04/26 02:22:45;;;;;;;12.87;12.07;;;;;;;7.31;100.00;91845.13;5122558;28;20184;-75
2023/04/26 02:25:11;;;;;;;13.03;12.13;;;;;;;7.30;100.00;91833.16;5111567;28;20215;-75
2023/04/26 02:27:36;;;;;;;11.83;11.10;;;;;;;7.27;100.00;91846.72;5110965;28;20247;-73
2023/04/26 02:30:02;;;;;;;11.63;10.83;;;;;;;7.43;100.00;91845.50;5115049;28;20308;-73
2023/04/26 02:32:28;;;;;;;13.10;12.10;;;;;;;7.47;100.00;91837.94;5119631;28;20220;-73
2023/04/26 02:34:53;;;;;;;12.47;11.57;;;;;;;7.63;100.00;91839.28;5124325;28;20242;-73
2023/04/26 02:37:20;;;;;;;12.60;11.80;;;;;;;7.57;100.00;91851.56;5109000;28;20192;-73
2023/04/26 02:39:49;;;;;;;13.97;12.90;;;;;;;7.49;100.00;91836.59;5106569;28;20249;-73
2023/04/26 02:42:14;;;;;;;13.60;12.70;;;;;;;7.68;100.00;91845.19;5107575;28;20180;-73
2023/04/26 02:44:40;;;;;;;12.77;11.67;;;;;;;7.70;100.00;91819.72;5094961;28;20244;-73
2023/04/26 02:47:05;;;;;;;12.73;11.90;;;;;;;7.70;100.00;91811.91;5098489;28;20191;-73
2023/04/26 02:49:31;;;;;;;13.30;12.40;;;;;;;7.87;100.00;91835.59;5094371;28;20219;-73
2023/04/26 02:51:56;;;;;;;12.53;11.63;;;;;;;7.91;100.00;91822.78;5108214;28;20176;-73
2023/04/26 02:54:21;;;;;;;13.73;12.73;;;;;;;7.79;100.00;91812.84;5094643;28;20184;-73
2023/04/26 02:56:47;;;;;;;13.83;12.77;;;;;;;7.87;100.00;91817.41;5107660;28;20249;-73
2023/04/26 02:59:12;;;;;;;13.97;12.87;;;;;;;7.70;100.00;91806.72;5104270;28;20180;-73
2023/04/26 03:01:38;;;;;;;14.30;13.30;;;;;;;7.55;100.00;91826.91;5092882;28;20319;-73
2023/04/26 03:04:03;;;;;;;12.77;11.87;;;;;;;7.76;100.00;91836.78;5103807;28;20208;-73
2023/04/26 03:06:30;;;;;;;12.73;11.83;;;;;;;7.53;100.00;91840.16;5106050;28;20243;-73
2023/04/26 03:08:55;;;;;;;14.73;13.43;;;;;;;7.53;100.00;91826.44;5105274;28;20238;-73
2023/04/26 03:11:20;;;;;;;12.53;11.73;;;;;;;7.96;100.00;91827.91;5096711;28;20224;-73
2023/04/26 03:13:46;;;;;;;13.40;12.40;;;;;;;7.90;100.00;91821.25;5102410;28;20187;-73
2023/04/26 03:16:11;;;;;;;14.03;13.03;;;;;;;7.95;100.00;91814.16;5115946;28;20260;-73
2023/04/26 03:18:37;;;;;;;13.07;12.20;;;;;;;7.89;100.00;91819.72;5123359;28;20280;-73
2023/04/26 03:21:02;;;;;;;13.40;12.40;;;;;;;7.91;100.00;91817.59;5110078;28;20227;-72
2023/04/26 03:23:28;;;;;;;12.70;11.70;;;;;;;8.08;100.00;91830.88;5125928;28;20207;-73
2023/04/26 03:25:53;;;;;;;14.10;13.10;;;;;;;8.15;100.00;91834.66;5128428;28;20242;-73
2023/04/26 03:28:19;;;;;;;14.27;13.17;;;;;;;8.08;100.00;91834.25;5114351;28;20175;-73
2023/04/26 03:30:44;;;;;;;14.23;13.13;;;;;;;8.11;100.00;91830.28;5119262;28;20275;-73
2023/04/26 03:33:12;;;;;;;13.67;12.73;;;;;;;8.14;100.00;91830.50;5119353;28;20198;-73
2023/04/26 03:35:37;;;;;;;13.97;12.87;;;;;;;8.11;100.00;91838.09;5115455;28;20224;-70
2023/04/26 03:38:03;;;;;;;14.60;13.40;;;;;;;8.02;100.00;91827.56;5118322;28;20176;-70
2023/04/26 03:40:28;;;;;;;14.90;13.70;;;;;;;8.16;100.00;91825.81;5110546;28;20829;-70
2023/04/26 03:42:54;;;;;;;15.13;13.80;;;;;;;8.12;100.00;91819.63;5119982;28;20215;-72
2023/04/26 03:45:20;;;;;;;13.13;12.13;;;;;;;8.19;100.00;91819.25;5113293;28;20251;-70
2023/04/26 03:47:45;;;;;;;15.10;13.77;;;;;;;8.52;100.00;91827.88;5116301;28;20184;-73
2023/04/26 03:50:11;;;;;;;14.27;13.10;;;;;;;8.80;100.00;91842.53;5113473;28;20223;-70
2023/04/26 03:52:36;;;;;;;14.30;13.10;;;;;;;8.81;100.00;91838.88;5120772;28;20190;-69
2023/04/26 03:55:02;;;;;;;14.53;13.43;;;;;;;8.80;100.00;91830.28;5110894;28;20213;-70
2023/04/26 03:57:27;;;;;;;12.93;11.93;;;;;;;9.25;100.00;91836.50;5094644;28;20180;-69
2023/04/26 03:59:53;;;;;;;14.83;13.53;;;;;;;9.27;100.00;91816.94;5097996;28;20243;-72
2023/04/26 04:02:18;;;;;;;15.80;14.50;;;;;;;9.39;100.00;91832.06;5109434;28;20228;-69
2023/04/26 04:04:43;;;;;;;15.77;14.30;;;;;;;8.91;100.00;91843.91;5112037;28;20236;-71
2023/04/26 04:07:09;;;;;;;15.33;13.80;;;;;;;9.03;100.00;91808.53;5114775;28;20191;-74
2023/04/26 04:09:34;;;;;;;14.73;13.40;;;;;;;9.45;100.00;91854.34;5098263;28;20216;-74
2023/04/26 04:12:00;;;;;;;15.50;14.10;;;;;;;9.40;100.00;91860.44;5112004;28;20192;-74
2023/04/26 04:14:25;;;;;;;13.93;12.70;;;;;;;9.60;100.00;91860.06;5126101;28;20190;-71
2023/04/26 04:16:51;;;;;;;15.83;14.33;;;;;;;9.47;100.00;91860.06;5111069;28;20176;-68
2023/04/26 04:19:17;;;;;;;15.47;14.07;;;;;;;9.56;100.00;91868.75;5114606;28;20207;-73
2023/04/26 04:21:42;;;;;;;16.80;14.23;;;;;;;9.57;100.00;91844.25;5115726;28;20230;-72
2023/04/26 04:24:08;;;;;;;17.43;15.10;;;;;;;9.95;100.00;91857.78;5118672;28;20184;-71
2023/04/26 04:26:33;;;;;;;17.73;14.97;;;;;;;9.80;100.00;91870.06;5098424;28;21662;-70
2023/04/26 04:29:07;;;;;;;16.73;15.03;;;;;;;9.95;100.00;91871.63;5112645;28;20210;-70
2023/04/26 04:31:33;;;;;;;16.83;15.23;;;;;;;10.18;100.00;91870.63;5121437;28;20279;-70
2023/04/26 04:33:59;;;;;;;17.53;15.30;;;;;;;10.44;100.00;91863.81;5112463;28;20161;-68
2023/04/26 04:36:26;;;;;;;18.83;16.93;;;;;;;10.75;98.83;91875.09;5086775;28;20217;-69
2023/04/26 04:38:52;;;;;;;21.17;19.03;;;;;;;10.74;97.40;91868.31;5082125;28;20188;-70
2023/04/26 04:41:19;;;;;;;19.23;17.23;;;;;;;10.81;98.13;91873.91;5110593;28;20215;-70
2023/04/26 04:43:45;;;;;;;16.53;14.93;;;;;;;10.64;98.37;91863.34;5120490;28;20184;-69
2023/04/26 04:46:10;;;;;;;19.60;17.30;;;;;;;10.27;100.00;91884.53;5117847;27;20401;-70
2023/04/26 04:48:37;;;;;;;20.43;18.20;;;;;;;9.97;100.00;91882.53;5111283;28;20200;-69
2023/04/26 04:51:03;;;;;;;21.53;19.00;;;;;;;9.95;100.00;91881.25;5114665;28;20223;-70
2023/04/26 04:53:29;;;;;;;25.93;19.50;;;;;;;10.05;100.00;91883.69;5107242;28;20215;-69
2023/04/26 04:55:55;;;;;;;26.93;19.57;;;;;;;9.98;100.00;91884.06;5114150;28;20261;-68
2023/04/26 04:58:21;;;;;;;27.03;19.43;;;;;;;9.79;100.00;91863.34;5108249;28;20184;-69
2023/04/26 05:00:47;;;;;;;27.30;20.70;;;;;;;9.84;100.00;91870.28;5100125;28;20224;-69
2023/04/26 05:03:15;;;;;;;24.07;18.50;;;;;;;9.91;100.00;91886.31;5106590;28;20224;-69
2023/04/26 05:05:40;;;;;;;25.67;20.00;;;;;;;10.02;100.00;91884.25;5095645;28;20225;-68
2023/04/26 05:08:08;;;;;;;21.20;18.90;;;;;;;10.31;100.00;91874.28;5074752;28;20196;-68
2023/04/26 05:10:34;;;;;;;23.10;18.20;;;;;;;10.17;100.00;91869.09;5099721;28;20287;-69
2023/04/26 05:13:00;;;;;;;27.13;19.47;;;;;;;10.55;100.00;91883.38;5120139;28;20185;-70
2023/04/26 05:15:26;;;;;;;25.33;18.83;;;;;;;10.57;98.19;91868.19;5122767;28;20288;-73
2023/04/26 05:17:51;;;;;;;27.53;21.00;;;;;;;10.69;99.12;91881.47;5127261;28;20231;-70
2023/04/26 05:20:17;;;;;;;25.57;19.67;;;;;;;10.72;98.98;91864.47;5128034;27;20227;-70
2023/04/26 05:22:42;;;;;;;33.17;19.97;;;;;;;11.25;98.01;91897.34;5119311;28;20188;-70
2023/04/26 05:25:09;;;;;;;25.33;19.80;;;;;;;11.45;96.27;91892.69;5109552;28;20222;-67
2023/04/26 05:27:36;;;;;;;27.67;20.33;;;;;;;11.53;94.67;91889.34;5116591;28;20203;-68
2023/04/26 05:30:03;;;;;;;26.20;20.10;;;;;;;11.52;95.23;91893.81;5121458;28;20237;-72
2023/04/26 05:32:28;;;;;;;25.47;18.73;;;;;;;11.83;92.69;91885.97;5115343;28;20203;-74
2023/04/26 05:34:54;;;;;;;24.93;20.30;;;;;;;12.68;90.44;91888.72;5128669;28;20226;-74
2023/04/26 05:37:20;;;;;;;23.73;19.80;;;;;;;13.34;85.06;91901.31;5118744;28;21037;-74
2023/04/26 05:39:45;;;;;;;23.60;19.40;;;;;;;13.13;84.80;91905.69;5123754;27;20282;-73
2023/04/26 05:42:10;;;;;;;31.60;20.13;;;;;;;13.72;82.47;91923.13;5120109;28;20700;-74
2023/04/26 05:44:36;;;;;;;26.07;20.63;;;;;;;12.89;84.78;91882.56;5123471;28;20186;-74
2023/04/26 05:47:01;;;;;;;22.77;18.80;;;;;;;13.07;85.48;91912.16;5121137;28;20185;-74
2023/04/26 05:49:26;;;;;;;23.47;19.50;;;;;;;13.08;85.57;91912.91;5122750;28;20213;-74
2023/04/26 05:51:52;;;;;;;21.67;19.07;;;;;;;13.16;85.42;91914.75;5119531;28;20172;-74
2023/04/26 05:54:17;;;;;;;21.00;18.27;;;;;;;13.11;84.74;91918.31;5123554;28;20183;-74
2023/04/26 05:56:42;;;;;;;20.70;16.60;;;;;;;12.42;86.13;91906.28;5118751;28;20216;-74
2023/04/26 05:59:08;;;;;;;18.57;16.67;;;;;;;12.91;83.73;91919.69;5109326;28;20176;-74
2023/04/26 06:01:33;;;;;;;20.70;16.73;;;;;;;12.93;84.27;91925.38;5110822;28;20212;-74
2023/04/26 06:03:59;;;;;;;17.83;16.03;;;;;;;12.63;84.44;91881.00;5110172;28;20254;-74
2023/04/26 06:06:27;;;;;;;18.63;16.33;;;;;;;13.80;81.77;91922.34;5109867;28;20212;-73
2023/04/26 06:08:52;;;;;;;17.77;15.90;;;;;;;14.25;78.47;91917.38;5111494;28;20187;-74
2023/04/26 06:11:18;;;;;;;16.83;15.03;;;;;;;15.55;73.00;91911.59;5123330;28;20215;-73
2023/04/26 06:13:43;;;;;;;13.97;12.80;;;;;;;16.24;62.19;91930.78;5117573;28;20183;-75
2023/04/26 06:16:08;;;;;;;13.37;12.33;;;;;;;15.08;64.40;91928.72;5109808;28;20227;-74
2023/04/26 06:18:34;;;;;;;13.90;12.80;;;;;;;14.34;72.21;91900.50;5095105;28;20215;-73
2023/04/26 06:20:59;;;;;;;12.50;11.40;;;;;;;12.25;74.58;91921.94;5097171;28;20255;-74
2023/04/26 06:23:25;;;;;;;12.77;11.87;;;;;;;12.96;73.44;91926.63;5092569;28;20200;-74
2023/04/26 06:25:50;;;;;;;12.73;11.77;;;;;;;13.33;74.66;91907.66;5110074;28;20246;-73
2023/04/26 06:28:16;;;;;;;14.63;13.33;;;;;;;12.54;77.82;91920.31;5103763;28;20179;-74
2023/04/26 06:30:41;;;;;;;12.37;11.57;;;;;;;12.12;77.37;91920.22;5101408;28;20258;-74
2023/04/26 06:33:07;;;;;;;10.70;9.93;;;;;;;11.95;77.85;91905.25;5091113;28;20169;-73
2023/04/26 06:35:38;;;;;;;12.90;11.90;;;;;;;10.73;79.99;91881.66;5107070;28;20228;-73
2023/04/26 06:38:03;;;;;;;13.07;12.30;;;;;;;11.08;79.83;91927.84;5102842;28;20192;-74
2023/04/26 06:40:29;;;;;;;12.23;11.43;;;;;;;10.84;79.88;91909.88;5107074;28;20744;-72
2023/04/26 06:42:55;;;;;;;12.30;11.40;;;;;;;11.29;77.81;91931.50;5097471;28;20192;-73
2023/04/26 06:45:21;;;;;;;12.40;11.60;;;;;;;11.13;79.32;91927.72;5097871;28;20204;-73
2023/04/26 06:47:46;;;;;;;11.73;10.83;;;;;;;11.54;80.31;91920.41;5110477;28;20847;-74
2023/04/26 06:50:12;;;;;;;12.60;11.80;;;;;;;11.73;80.01;91920.22;5119019;28;20245;-73
2023/04/26 06:52:37;;;;;;;12.83;11.80;;;;;;;11.85;79.98;91915.19;5124217;28;20180;-73
2023/04/26 06:55:03;;;;;;;12.77;11.73;;;;;;;11.64;81.63;91917.59;5127073;28;20254;-74
2023/04/26 06:57:29;;;;;;;12.37;11.27;;;;;;;11.54;76.46;91930.09;5123582;28;20183;-73
2023/04/26 06:59:54;;;;;;;12.80;11.90;;;;;;;10.91;77.55;91897.16;5117839;28;20306;-73
2023/04/26 07:02:21;;;;;;;11.60;10.83;;;;;;;11.17;76.32;91929.44;5120358;28;20243;-74
2023/04/26 07:04:47;;;;;;;11.87;11.10;;;;;;;10.89;76.33;91890.69;5114894;28;20433;-73
2023/04/26 07:07:13;;;;;;;13.43;12.43;;;;;;;11.45;75.31;91935.28;5101165;28;20199;-73
2023/04/26 07:09:38;;;;;;;13.20;12.30;;;;;;;11.10;76.23;91943.97;5106095;28;20204;-73
2023/04/26 07:12:04;;;;;;;11.83;11.00;;;;;;;11.41;75.13;91936.19;5094227;28;20214;-74
2023/04/26 07:14:29;;;;;;;14.27;12.97;;;;;;;11.12;74.12;91885.16;5107219;28;20192;-73
2023/04/26 07:16:55;;;;;;;12.20;11.40;;;;;;;11.53;75.21;91931.19;5101288;28;20181;-73
2023/04/26 07:19:20;;;;;;;12.13;11.33;;;;;;;12.35;72.94;91937.34;5090331;28;20192;-73
2023/04/26 07:21:46;;;;;;;11.63;10.97;;;;;;;12.36;72.61;91918.72;5105582;28;20295;-74
2023/04/26 07:24:12;;;;;;;11.50;10.30;;;;;;;11.56;65.29;91922.72;5109125;28;20211;-73
2023/04/26 07:26:37;;;;;;;10.97;10.23;;;;;;;11.39;63.99;91926.78;5100801;28;20224;-71
2023/04/26 07:29:03;;;;;;;9.33;8.83;;;;;;;11.58;63.79;91931.06;5099809;28;20197;-74
2023/04/26 07:31:30;;;;;;;9.63;9.03;;;;;;;11.61;60.16;91943.53;5101817;28;20225;-73
2023/04/26 07:33:56;;;;;;;10.33;9.53;;;;;;;12.68;60.41;91938.47;5097628;28;20180;-73
2023/04/26 07:36:21;;;;;;;9.53;8.97;;;;;;;12.73;56.08;91920.00;5103601;28;20219;-73
2023/04/26 07:38:47;;;;;;;9.57;9.07;;;;;;;12.28;56.05;91927.31;5106759;28;20191;-74
2023/04/26 07:41:12;;;;;;;9.80;9.30;;;;;;;12.25;57.04;91940.25;5094704;28;20224;-72
2023/04/26 07:43:38;;;;;;;9.17;8.57;;;;;;;12.55;58.87;91947.22;5108062;28;20197;-74
2023/04/26 07:46:03;;;;;;;10.13;9.27;;;;;;;12.86;59.20;91950.50;5103416;28;20208;-74
2023/04/26 07:48:29;;;;;;;10.53;9.93;;;;;;;12.34;60.43;91949.66;5110420;28;20191;-73
2023/04/26 07:50:54;;;;;;;10.23;9.73;;;;;;;13.01;60.97;91946.69;5120275;28;20212;-73
2023/04/26 07:53:20;;;;;;;10.40;9.80;;;;;;;12.86;61.95;91950.50;5119226;28;20171;-73
2023/04/26 07:55:46;;;;;;;9.87;9.33;;;;;;;12.31;65.26;91941.66;5115258;28;20221;-73
2023/04/26 07:58:13;;;;;;;9.97;9.47;;;;;;;11.93;63.95;91925.69;5101130;28;20213;-73
2023/04/26 08:00:39;;;;;;;10.20;9.40;;;;;;;12.80;64.89;91955.13;5122870;28;20222;-73
2023/04/26 08:03:04;;;;;;;9.93;9.43;;;;;;;12.65;65.74;91947.69;5118721;28;20218;-73
2023/04/26 08:05:30;;;;;;;10.37;9.87;;;;;;;12.19;64.62;91950.09;5097064;28;20242;-73
2023/04/26 08:07:55;;;;;;;10.13;9.53;;;;;;;11.68;65.90;91944.66;5125879;28;20195;-73
2023/04/26 08:10:21;;;;;;;11.07;10.47;;;;;;;11.58;67.10;91949.34;5117334;28;20239;-72
2023/04/26 08:12:46;;;;;;;10.90;10.30;;;;;;;11.69;67.11;91950.69;5110961;28;20186;-73
2023/04/26 08:15:11;;;;;;;11.77;10.77;;;;;;;11.99;67.56;91949.84;5115933;28;20221;-74
2023/04/26 08:17:37;;;;;;;11.40;10.67;;;;;;;11.49;68.80;91945.94;5098789;28;20186;-72
2023/04/26 08:20:04;;;;;;;11.13;10.53;;;;;;;11.45;67.69;91914.38;5100138;28;20247;-75
2023/04/26 08:22:30;;;;;;;11.33;10.63;;;;;;;12.13;68.26;91945.28;5129750;28;20202;-73
2023/04/26 08:24:55;;;;;;;11.37;10.67;;;;;;;12.12;66.64;91956.84;5126216;28;20210;-73
2023/04/26 08:27:21;;;;;;;11.30;10.60;;;;;;;12.13;66.76;91940.06;5124098;28;20183;-74
2023/04/26 08:29:47;;;;;;;11.83;11.03;;;;;;;12.62;67.30;91964.03;5119877;28;20224;-74
2023/04/26 08:32:12;;;;;;;11.03;10.33;;;;;;;12.28;66.01;91957.97;5120575;28;20185;-74
2023/04/26 08:34:38;;;;;;;11.43;10.73;;;;;;;11.82;67.58;91952.41;5125720;28;20245;-73
2023/04/26 08:37:05;;;;;;;10.43;9.83;;;;;;;12.01;67.15;91952.94;5092760;28;20208;-74
2023/04/26 08:39:32;;;;;;;11.40;10.70;;;;;;;12.02;66.04;91954.47;5105553;28;20186;-74
2023/04/26 08:42:12;;;;;;;10.43;9.83;;;;;;;11.45;65.19;91877.03;5103051;28;20242;-73
2023/04/26 08:44:40;;;;;;;11.53;10.83;;;;;;;11.96;66.02;91960.94;5105505;28;20199;-73
2023/04/26 08:47:14;;;;;;;9.97;9.47;;;;;;;12.19;65.58;91970.22;5106857;28;20286;-73
2023/04/26 08:49:42;;;;;;;11.33;10.60;;;;;;;12.22;66.67;91944.25;5093089;28;21039;-73
2023/04/26 08:52:12;;;;;;;12.53;11.83;;;;;;;11.89;65.04;91966.59;5123701;28;20210;-73
2023/04/26 08:54:39;;;;;;;10.37;9.87;;;;;;;12.28;64.35;91973.69;5112174;28;20186;-74
2023/04/26 08:57:06;;;;;;;10.60;9.97;;;;;;;12.29;63.83;91964.75;5128192;28;20209;-73
2023/04/26 08:59:42;;;;;;;10.27;9.63;;;;;;;12.16;63.90;91973.47;5131795;28;20178;-73
2023/04/26 09:02:09;;;;;;;11.00;10.40;;;;;;;12.34;64.97;91969.84;5109352;28;20224;-73
2023/04/26 09:04:35;;;;;;;10.53;9.83;;;;;;;12.37;63.42;91962.13;5110655;28;20217;-72
2023/04/26 09:07:03;;;;;;;10.97;10.20;;;;;;;12.13;64.63;91946.06;5108942;28;20239;-75
2023/04/26 09:09:41;;;;;;;11.07;10.53;;;;;;;12.54;65.10;91979.75;5108172;28;20242;-70
2023/04/26 09:12:07;;;;;;;9.57;9.17;;;;;;;12.46;64.38;91988.34;5116644;28;20176;-69
2023/04/26 09:14:32;;;;;;;10.50;9.90;;;;;;;12.67;64.13;91973.59;5121934;28;20181;-69
2023/04/26 09:16:58;;;;;;;10.93;10.33;;;;;;;12.64;64.15;91984.66;5128745;28;20192;-69
2023/04/26 09:19:37;;;;;;;10.30;9.50;;;;;;;12.95;62.96;91988.72;5131801;28;20190;-71
2023/04/26 09:22:03;;;;;;;9.93;9.43;;;;;;;12.57;62.79;91995.63;5117528;28;20190;-69
2023/04/26 09:24:47;;;;;;;10.20;9.60;;;;;;;12.77;63.26;91991.63;5113090;28;20188;-69
2023/04/26 09:27:12;;;;;;;9.87;9.37;;;;;;;12.93;63.28;91995.38;5120302;28;20258;-70
2023/04/26 09:29:38;;;;;;;10.87;10.20;;;;;;;12.48;62.34;92005.28;5127711;28;20215;-69
2023/04/26 09:32:03;;;;;;;10.40;9.90;;;;;;;12.42;64.56;91995.28;5107802;28;20239;-69
2023/04/26 09:34:30;;;;;;;9.93;9.43;;;;;;;12.44;64.64;91993.88;5120811;28;20195;-70
2023/04/26 09:36:56;;;;;;;10.37;9.77;;;;;;;12.37;65.03;92000.63;5102988;28;20174;-69
2023/04/26 09:39:33;;;;;;;10.70;10.20;;;;;;;12.61;63.22;91993.13;5106539;28;20201;-69
2023/04/26 09:41:59;;;;;;;10.67;10.00;;;;;;;12.34;62.52;91988.91;5132096;28;20230;-69
2023/04/26 09:44:25;;;;;;;10.57;9.47;;;;;;;12.55;63.72;91987.28;5126525;28;20206;-70
2023/04/26 09:47:10;;;;;;;10.73;9.93;;;;;;;12.24;62.76;91975.34;5121553;28;20188;-69
2023/04/26 09:49:49;;;;;;;10.53;9.93;;;;;;;13.27;61.75;91987.53;5109280;28;20238;-70
2023/04/26 09:52:15;;;;;;;10.50;9.90;;;;;;;13.06;62.13;91989.22;5099649;28;20177;-70
2023/04/26 09:54:53;;;;;;;10.23;9.73;;;;;;;13.08;62.22;91968.72;5109685;28;20198;-69
2023/04/26 09:57:21;;;;;;;9.63;9.23;;;;;;;13.11;59.99;91985.66;5107806;28;20189;-69
2023/04/26 09:59:51;;;;;;;9.67;9.27;;;;;;;13.12;59.64;91982.75;5109305;28;20249;-71
2023/04/26 10:02:21;;;;;;;9.83;9.33;;;;;;;13.35;59.00;91986.75;5105485;28;20228;-69
2023/04/26 10:04:52;;;;;;;10.07;9.47;;;;;;;13.62;60.16;91990.91;5109553;28;20231;-69
2023/04/26 10:07:19;;;;;;;10.13;9.53;;;;;;;12.94;59.58;91992.44;5106138;28;20232;-70
2023/04/26 10:09:45;;;;;;;9.37;8.87;;;;;;;13.10;60.79;91984.91;5101383;28;20216;-70
2023/04/26 10:12:13;;;;;;;10.23;9.70;;;;;;;13.81;57.65;91991.28;5116321;28;20218;-69
2023/04/26 10:14:40;;;;;;;10.10;9.60;;;;;;;13.27;60.53;91984.91;5130520;28;20194;-69
2023/04/26 10:17:05;;;;;;;9.83;9.33;;;;;;;13.66;57.44;91976.84;5125525;28;20856;-69
2023/04/26 10:19:33;;;;;;;9.93;9.33;;;;;;;13.64;59.22;91963.25;5123322;27;20184;-69
2023/04/26 10:22:05;;;;;;;9.50;8.90;;;;;;;13.86;57.42;91978.81;5116326;28;20175;-70
2023/04/26 10:24:31;;;;;;;10.50;9.70;;;;;;;13.81;58.35;91973.72;5125992;28;20199;-69
2023/04/26 10:26:56;;;;;;;9.33;8.93;;;;;;;14.18;57.42;91975.59;5117815;28;20186;-69
2023/04/26 10:29:45;;;;;;;10.40;9.90;;;;;;;14.04;56.64;91964.53;5123593;28;20264;-68
2023/04/26 10:32:15;;;;;;;9.70;9.30;;;;;;;12.84;56.48;91966.53;5121329;28;20290;-70
2023/04/26 10:34:41;;;;;;;8.63;8.13;;;;;;;13.57;55.96;91977.94;5124569;28;20207;-69
2023/04/26 10:37:15;;;;;;;9.37;8.87;;;;;;;13.19;57.50;91983.06;5105278;28;20208;-69
2023/04/26 10:39:45;;;;;;;9.13;8.63;;;;;;;13.19;57.21;91969.97;5107722;28;20651;-69
2023/04/26 10:42:22;;;;;;;9.50;9.00;;;;;;;13.41;57.11;91979.50;5098552;28;20192;-70
2023/04/26 10:44:58;;;;;;;9.13;8.73;;;;;;;12.88;57.02;91961.44;5108891;28;20224;-70
2023/04/26 10:47:30;;;;;;;8.97;8.57;;;;;;;13.51;57.37;91981.81;5096994;28;20195;-70
2023/04/26 10:50:08;;;;;;;9.37;8.97;;;;;;;13.73;55.63;91976.34;5107727;28;20287;-70
2023/04/26 10:52:35;;;;;;;8.57;8.27;;;;;;;13.36;56.31;91977.81;5090328;28;20197;-70
2023/04/26 10:55:01;;;;;;;9.23;8.83;;;;;;;13.45;54.88;91970.69;5100477;28;20234;-69
2023/04/26 10:57:47;;;;;;;8.70;8.40;;;;;;;13.28;54.15;91970.72;5108262;28;20193;-69
2023/04/26 11:00:17;;;;;;;9.17;8.77;;;;;;;13.68;54.94;91966.78;5095881;28;20224;-70
2023/04/26 11:02:51;;;;;;;8.90;8.50;;;;;;;14.02;53.95;91968.56;5097078;28;20232;-69
2023/04/26 11:05:35;;;;;;;8.97;8.57;;;;;;;13.87;52.59;91972.47;5102498;28;20256;-69
2023/04/26 11:08:04;;;;;;;9.20;8.80;;;;;;;13.58;53.73;91987.34;5114757;28;20184;-69
2023/04/26 11:10:29;;;;;;;9.40;8.93;;;;;;;13.54;54.84;91973.31;5122760;28;20231;-69
2023/04/26 11:13:00;;;;;;;10.47;9.73;;;;;;;13.51;52.79;91958.22;5121636;28;20183;-69
2023/04/26 11:15:25;;;;;;;9.07;8.67;;;;;;;13.88;52.24;91978.47;5115034;28;20221;-69
2023/04/26 11:17:50;;;;;;;9.83;8.90;;;;;;;13.37;52.92;91968.09;5110212;28;20219;-69